Time;durP1;ratioP1;P1;durP2;ratioP2;P2;SDS_P1;SDS_P2;PMS_P1;PMS_P2;Temp;Humidity;BMP_temperature;BMP_pressure;BME280_temperature;BME280_humidity;BME280_pressure;Samples;Min_cycle;Max_cycle;Signal;HPM_P1;HPM_P2
2022/11/04 00:02:08;;;;;;;0.10;0.10;;;;;;;17.76;40.54;95242.75;5094947;28;20535;-65
2022/11/04 00:04:35;;;;;;;0.90;0.83;;;;;;;17.84;40.02;95232.28;5088735;28;20456;-62
2022/11/04 00:08:22;;;;;;;3.20;1.60;;;;;;;17.90;40.13;95230.31;5088777;28;20520;-64
2022/11/04 00:09:49;;;;;;;0.63;0.63;;;;;;;17.92;39.93;95230.78;5088479;28;20437;-65
2022/11/04 00:12:24;;;;;;;0.30;0.30;;;;;;;17.81;40.31;95232.09;5102240;28;20561;-63
2022/11/04 00:14:52;;;;;;;1.10;1.03;;;;;;;17.81;39.95;95232.09;5095749;28;20436;-63
2022/11/04 00:17:21;;;;;;;2.13;2.03;;;;;;;17.66;40.55;95230.47;5095641;28;20441;-65
2022/11/04 00:33:51;;;;;;;0.60;0.60;;;;;;;17.73;40.33;95230.09;5103651;28;20448;-63
2022/11/04 00:36:18;;;;;;;1.33;1.27;;;;;;;17.57;40.94;95226.13;5091740;28;20822;-65
2022/11/04 00:38:45;;;;;;;1.20;1.20;;;;;;;17.49;40.72;95224.13;5099081;28;20866;-65
2022/11/04 00:41:28;;;;;;;0.40;0.40;;;;;;;17.34;40.43;95221.69;5098581;27;20460;-64
2022/11/04 00:44:04;;;;;;;0.13;0.13;;;;;;;17.28;41.02;95222.88;5092084;28;20959;-65
2022/11/04 00:46:32;;;;;;;0.73;0.73;;;;;;;17.33;41.51;95225.44;5105941;28;20463;-65
2022/11/04 00:48:59;;;;;;;0.23;0.23;;;;;;;17.25;41.45;95216.28;5099482;28;20543;-61
2022/11/04 00:51:27;;;;;;;16.13;2.27;;;;;;;17.21;41.35;95218.72;5099282;28;20488;-65
2022/11/04 00:53:56;;;;;;;0.57;0.57;;;;;;;17.18;41.19;95208.72;5108503;28;20511;-64
2022/11/04 00:56:23;;;;;;;5.80;2.23;;;;;;;16.99;41.58;95210.56;5103434;28;20799;-64
2022/11/04 00:58:50;;;;;;;0.83;0.60;;;;;;;16.87;42.13;95207.59;5091463;28;20967;-63
2022/11/04 01:01:18;;;;;;;2.13;1.93;;;;;;;17.00;41.82;95198.94;5098578;28;20460;-62
2022/11/04 01:03:47;;;;;;;0.50;0.50;;;;;;;16.88;41.69;95195.13;5098646;28;20510;-63
2022/11/04 01:06:15;;;;;;;7.93;2.73;;;;;;;16.80;42.55;95204.50;5105767;28;20449;-62
2022/11/04 01:08:42;;;;;;;0.93;0.93;;;;;;;16.82;42.30;95204.22;5091354;28;20499;-63
2022/11/04 01:11:09;;;;;;;1.00;0.97;;;;;;;16.80;41.78;95199.22;5091386;28;20469;-63
2022/11/04 01:13:37;;;;;;;0.53;0.53;;;;;;;17.02;41.58;95188.81;5091617;28;20514;-65
2022/11/04 01:16:07;;;;;;;2.37;1.67;;;;;;;16.73;42.34;95206.69;5090435;28;20437;-62
2022/11/04 01:18:34;;;;;;;0.50;0.50;;;;;;;16.73;42.38;95190.81;5100421;28;20535;-66
2022/11/04 01:21:03;;;;;;;0.67;0.67;;;;;;;16.75;42.24;95193.22;5095361;28;20437;-63
2022/11/04 01:23:30;;;;;;;3.80;1.53;;;;;;;16.80;42.10;95186.00;5098858;28;21019;-65
2022/11/04 01:25:57;;;;;;;1.70;1.60;;;;;;;16.75;41.94;95187.91;5097280;28;20915;-62
2022/11/04 01:28:24;;;;;;;0.40;0.40;;;;;;;16.87;41.70;95175.81;5091013;28;20449;-63
2022/11/04 01:30:52;;;;;;;3.03;1.13;;;;;;;16.89;41.73;95168.38;5103596;28;20440;-64
2022/11/04 01:33:19;;;;;;;2.87;0.87;;;;;;;16.90;41.81;95180.53;5106496;28;20480;-60
2022/11/04 01:35:45;;;;;;;0.63;0.63;;;;;;;16.73;42.48;95177.59;5090395;28;20526;-63
2022/11/04 01:38:12;;;;;;;1.67;1.37;;;;;;;16.44;42.75;95181.44;5090070;28;20887;-63
2022/11/04 01:40:40;;;;;;;0.10;0.10;;;;;;;16.62;41.92;95183.34;5098965;28;20517;-62
2022/11/04 01:43:21;;;;;;;1.33;0.97;;;;;;;16.64;42.40;95181.97;5096648;28;20469;-65
2022/11/04 01:45:57;;;;;;;0.53;0.53;;;;;;;16.67;41.88;95181.41;5102701;28;20452;-66
2022/11/04 01:48:30;;;;;;;1.03;1.03;;;;;;;16.59;42.07;95184.69;5092154;28;20440;-62
2022/11/04 01:50:58;;;;;;;3.03;0.77;;;;;;;16.46;42.45;95169.47;5102225;28;20437;-64
2022/11/04 01:53:31;;;;;;;0.60;0.60;;;;;;;16.49;42.60;95174.25;5103040;28;20505;-63
2022/11/04 01:56:03;;;;;;;4.67;2.00;;;;;;;16.41;42.79;95174.84;5091058;28;20506;-65
2022/11/04 01:58:34;;;;;;;1.70;1.53;;;;;;;16.33;42.47;95170.19;5102423;28;20440;-65
2022/11/04 02:01:01;;;;;;;1.13;1.13;;;;;;;16.19;42.76;95170.09;5110659;28;20547;-63
2022/11/04 02:03:37;;;;;;;1.37;1.27;;;;;;;16.22;42.67;95166.13;5099605;28;20469;-62
2022/11/04 02:06:05;;;;;;;4.93;1.07;;;;;;;16.11;43.11;95172.59;5108654;28;20451;-64
2022/11/04 02:08:32;;;;;;;1.57;1.33;;;;;;;15.74;44.19;95167.19;5110651;28;21025;-64
2022/11/04 02:11:01;;;;;;;17.23;1.50;;;;;;;15.95;43.53;95163.25;5108013;28;20466;-64
2022/11/04 02:13:31;;;;;;;0.33;0.33;;;;;;;15.94;43.87;95169.59;5089093;28;20516;-65
2022/11/04 02:16:23;;;;;;;0.47;0.47;;;;;;;15.94;43.63;95166.97;5104442;28;20441;-63
2022/11/04 02:19:15;;;;;;;0.70;0.70;;;;;;;16.20;42.93;95152.38;5101385;28;20437;-63
2022/11/04 02:22:03;;;;;;;0.73;0.73;;;;;;;16.19;42.91;95164.81;5096955;28;20848;-63
2022/11/04 02:24:33;;;;;;;2.53;1.90;;;;;;;15.69;44.39;95165.38;5093906;28;20520;-62
2022/11/04 02:27:18;;;;;;;1.30;1.20;;;;;;;16.00;43.28;95157.91;5098885;28;20455;-64
2022/11/04 02:30:04;;;;;;;4.83;1.83;;;;;;;16.09;43.75;95169.44;5110225;28;20962;-64
2022/11/04 02:32:54;;;;;;;0.10;0.10;;;;;;;16.14;43.63;95156.94;5098030;28;20452;-62
2022/11/04 02:35:49;;;;;;;4.27;1.00;;;;;;;15.98;43.48;95162.69;5089604;28;20441;-62
2022/11/04 02:38:52;;;;;;;1.10;1.00;;;;;;;15.89;43.66;95159.09;5104132;28;20445;-63
2022/11/04 02:41:40;;;;;;;1.13;1.13;;;;;;;15.56;44.55;95152.06;5104746;28;20432;-64
2022/11/04 02:44:19;;;;;;;0.37;0.37;;;;;;;15.65;44.28;95158.31;5110450;28;20463;-65
2022/11/04 02:47:04;;;;;;;1.43;1.30;;;;;;;15.42;45.35;95148.50;5106459;28;20468;-61
2022/11/04 02:49:37;;;;;;;0.60;0.60;;;;;;;15.54;45.23;95152.34;5101606;28;20436;-65
2022/11/04 02:52:08;;;;;;;0.80;0.80;;;;;;;15.55;44.45;95142.53;5092707;28;20445;-65
2022/11/04 02:54:41;;;;;;;0.87;0.83;;;;;;;15.65;44.54;95153.00;5110100;28;20448;-60
2022/11/04 02:57:15;;;;;;;0.63;0.63;;;;;;;15.64;44.73;95151.44;5109325;28;20498;-64
2022/11/04 02:59:52;;;;;;;1.53;1.43;;;;;;;15.55;44.71;95155.75;5089513;28;20449;-65
2022/11/04 03:02:26;;;;;;;0.50;0.50;;;;;;;15.72;44.46;95153.47;5103608;28;20463;-62
2022/11/04 03:04:56;;;;;;;9.50;0.87;;;;;;;15.71;44.81;95154.53;5098062;28;20439;-66
2022/11/04 03:07:28;;;;;;;0.70;0.70;;;;;;;15.69;44.07;95140.81;5109707;28;20462;-62
2022/11/04 03:10:01;;;;;;;0.67;0.67;;;;;;;15.55;44.65;95142.53;5109581;28;20447;-65
2022/11/04 03:12:55;;;;;;;0.30;0.30;;;;;;;15.58;44.65;95152.56;5108624;28;20965;-65
2022/11/04 03:15:27;;;;;;;3.40;2.03;;;;;;;15.48;44.66;95152.66;5100174;28;20506;-65
2022/11/04 03:18:01;;;;;;;3.03;1.90;;;;;;;15.45;44.69;95158.50;5091242;28;20440;-63
2022/11/04 03:20:30;;;;;;;0.83;0.83;;;;;;;15.35;45.15;95163.81;5100146;28;20520;-64
2022/11/04 03:22:59;;;;;;;0.30;0.30;;;;;;;15.17;45.30;95152.91;5109088;28;20981;-65
2022/11/04 03:25:31;;;;;;;1.33;1.23;;;;;;;15.25;45.74;95156.81;5099775;28;20564;-61
2022/11/04 03:28:20;;;;;;;1.33;1.23;;;;;;;14.51;47.11;95153.66;5103151;28;20448;-62
2022/11/04 03:30:53;;;;;;;0.77;0.77;;;;;;;14.26;46.83;95154.56;5089185;28;20554;-64
2022/11/04 03:33:26;;;;;;;0.63;0.63;;;;;;;14.58;46.32;95160.19;5107973;28;20927;-63
2022/11/04 03:35:53;;;;;;;0.43;0.43;;;;;;;14.39;46.80;95156.63;5096966;28;20951;-66
2022/11/04 03:38:21;;;;;;;0.30;0.30;;;;;;;14.04;47.17;95159.41;5092290;28;20464;-62
2022/11/04 03:40:49;;;;;;;0.83;0.83;;;;;;;14.36;47.52;95156.41;5109577;28;20452;-65
2022/11/04 03:43:24;;;;;;;0.50;0.50;;;;;;;14.65;46.88;95150.13;5109170;28;20545;-64
2022/11/04 03:45:52;;;;;;;0.30;0.30;;;;;;;14.31;47.20;95159.84;5109407;28;20472;-64
2022/11/04 03:48:20;;;;;;;0.57;0.57;;;;;;;14.65;46.42;95144.84;5108592;28;20495;-65
2022/11/04 03:50:48;;;;;;;0.63;0.63;;;;;;;14.64;46.15;95148.56;5102137;28;20429;-62
2022/11/04 03:53:20;;;;;;;1.50;1.40;;;;;;;14.47;46.36;95158.69;5100019;28;20440;-62
2022/11/04 03:56:08;;;;;;;0.43;0.43;;;;;;;14.53;46.47;95162.06;5108913;28;20804;-64
2022/11/04 03:58:41;;;;;;;2.03;1.33;;;;;;;13.69;48.83;95156.88;5111751;28;20903;-64
2022/11/04 04:01:16;;;;;;;0.40;0.40;;;;;;;14.31;47.09;95148.50;5112975;27;20455;-61
2022/11/04 04:03:54;;;;;;;0.63;0.63;;;;;;;14.56;46.95;95151.00;5099704;28;20503;-62
2022/11/04 04:06:28;;;;;;;1.47;1.37;;;;;;;14.59;46.17;95145.16;5099266;28;20443;-64
2022/11/04 04:09:08;;;;;;;0.90;0.90;;;;;;;14.62;46.51;95137.50;5098902;28;20927;-63
2022/11/04 04:11:42;;;;;;;14.73;2.37;;;;;;;14.68;46.34;95139.06;5100407;28;20439;-63
2022/11/04 04:14:38;;;;;;;1.40;1.30;;;;;;;14.81;45.99;95138.44;5112435;28;20475;-63
2022/11/04 04:17:33;;;;;;;1.40;0.93;;;;;;;14.72;45.64;95141.94;5112875;28;20472;-66
2022/11/04 04:20:13;;;;;;;4.43;2.97;;;;;;;14.26;47.23;95146.66;5099361;28;20493;-66
2022/11/04 04:22:45;;;;;;;1.70;1.40;;;;;;;14.25;46.74;95145.06;5112555;28;20597;-62
2022/11/04 04:28:03;;;;;;;0.70;0.50;;;;;;;14.41;47.30;95138.69;5112620;28;20440;-65
2022/11/04 04:30:31;;;;;;;0.73;0.73;;;;;;;14.40;46.20;95144.25;5102990;28;20440;-62
2022/11/04 04:33:12;;;;;;;1.00;0.60;;;;;;;14.27;47.13;95142.97;5108255;28;20444;-62
2022/11/04 04:35:43;;;;;;;3.30;0.93;;;;;;;14.33;46.81;95136.63;5102577;27;20437;-65
2022/11/04 04:47:08;;;;;;;1.07;1.03;;;;;;;14.19;47.33;95146.16;5105782;28;20476;-62
2022/11/04 04:49:35;;;;;;;0.57;0.57;;;;;;;14.38;46.25;95144.50;5104424;28;20475;-65
2022/11/04 04:52:06;;;;;;;0.53;0.53;;;;;;;14.34;46.82;95138.22;5093667;28;20442;-68
2022/11/04 04:54:33;;;;;;;7.93;2.80;;;;;;;14.18;47.59;95147.22;5112016;28;20471;-63
2022/11/04 04:56:59;;;;;;;2.37;2.17;;;;;;;14.42;47.07;95139.47;5098019;27;20527;-64
2022/11/04 04:59:26;;;;;;;1.47;1.20;;;;;;;14.52;47.22;95149.97;5111401;28;20962;-64
2022/11/04 05:01:53;;;;;;;1.90;1.37;;;;;;;14.56;47.11;95143.84;5094802;28;20527;-66
2022/11/04 05:04:20;;;;;;;0.63;0.63;;;;;;;14.61;46.95;95143.84;5090821;28;20484;-63
2022/11/04 05:06:47;;;;;;;0.33;0.33;;;;;;;14.59;47.14;95140.69;5105871;28;20436;-62
2022/11/04 05:09:13;;;;;;;1.03;1.03;;;;;;;14.71;46.98;95143.75;5103240;28;20933;-63
2022/11/04 05:11:40;;;;;;;0.27;0.27;;;;;;;14.66;47.03;95146.44;5091604;28;20535;-63
2022/11/04 05:14:07;;;;;;;0.37;0.37;;;;;;;14.65;47.44;95149.38;5110971;28;20489;-65
2022/11/04 05:16:34;;;;;;;1.37;1.27;;;;;;;14.52;47.68;95153.41;5112165;28;20437;-63
2022/11/04 05:19:06;;;;;;;2.07;0.87;;;;;;;14.45;47.52;95154.75;5107221;28;20445;-64
2022/11/04 05:21:33;;;;;;;1.23;1.17;;;;;;;14.59;47.89;95139.91;5110240;28;20910;-62
2022/11/04 05:24:00;;;;;;;2.53;2.00;;;;;;;14.68;47.51;95152.25;5098956;28;20491;-63
2022/11/04 05:26:27;;;;;;;1.50;1.03;;;;;;;14.72;47.00;95145.34;5105049;28;20444;-63
2022/11/04 05:28:54;;;;;;;5.50;1.43;;;;;;;14.73;47.58;95156.69;5090799;28;20441;-64
2022/11/04 05:31:21;;;;;;;4.97;2.40;;;;;;;14.71;48.20;95156.94;5107745;28;20947;-66
2022/11/04 05:33:48;;;;;;;4.03;2.63;;;;;;;14.81;47.34;95161.38;5102710;28;20536;-63
2022/11/04 05:36:16;;;;;;;1.37;1.17;;;;;;;14.70;47.79;95155.41;5103933;28;20463;-65
2022/11/04 05:38:43;;;;;;;1.90;1.80;;;;;;;14.71;47.63;95166.72;5091144;28;20477;-65
2022/11/04 05:41:11;;;;;;;1.03;0.83;;;;;;;14.72;47.90;95165.66;5090402;28;21018;-65
2022/11/04 05:43:52;;;;;;;9.13;6.83;;;;;;;15.06;48.25;95172.53;5102004;28;20611;-62
2022/11/04 05:46:20;;;;;;;32.33;8.53;;;;;;;15.05;48.20;95170.94;5089203;28;20529;-66
2022/11/04 05:48:47;;;;;;;1.80;1.57;;;;;;;15.11;47.52;95175.13;5089427;28;20478;-67
2022/11/04 05:51:16;;;;;;;0.53;0.53;;;;;;;14.93;47.31;95178.44;5089226;28;20445;-63
2022/11/04 05:53:43;;;;;;;3.30;2.83;;;;;;;14.96;48.11;95177.88;5089240;28;20503;-63
2022/11/04 05:56:12;;;;;;;4.10;1.57;;;;;;;14.93;47.76;95177.63;5093425;28;20520;-64
2022/11/04 05:58:39;;;;;;;1.50;1.40;;;;;;;14.87;48.21;95190.06;5098341;28;20951;-63
2022/11/04 06:01:44;;;;;;;4.63;2.90;;;;;;;14.99;48.55;95184.47;5088817;28;20963;-66
2022/11/04 06:04:14;;;;;;;2.47;1.57;;;;;;;14.95;48.18;95186.88;5080844;28;20557;-67
2022/11/04 06:06:41;;;;;;;2.03;1.87;;;;;;;15.12;47.38;95187.28;5073326;28;20435;-66
2022/11/04 06:09:08;;;;;;;1.27;1.23;;;;;;;15.03;48.11;95191.56;5098503;28;20452;-61
2022/11/04 06:11:36;;;;;;;0.90;0.90;;;;;;;15.10;47.72;95189.41;5090774;28;20540;-65
2022/11/04 06:14:03;;;;;;;1.73;1.53;;;;;;;15.35;47.93;95195.50;5090081;28;20467;-65
2022/11/04 06:16:30;;;;;;;13.17;7.83;;;;;;;15.42;47.40;95191.53;5107613;28;20503;-63
2022/11/04 06:18:57;;;;;;;1.87;1.77;;;;;;;15.37;46.83;95180.19;5100094;28;20498;-62
2022/11/04 06:21:32;;;;;;;3.73;2.13;;;;;;;15.52;46.31;95194.09;5089246;28;20497;-64
2022/11/04 06:23:59;;;;;;;2.03;1.93;;;;;;;15.01;48.72;95184.97;5089881;28;20500;-64
2022/11/04 06:26:29;;;;;;;1.13;1.13;;;;;;;15.50;46.89;95190.13;5103976;28;20472;-62
2022/11/04 06:28:56;;;;;;;7.20;2.37;;;;;;;15.42;47.40;95180.19;5093114;28;20442;-62
2022/11/04 06:31:23;;;;;;;1.03;0.93;;;;;;;14.99;49.23;95187.91;5089491;28;20464;-63
2022/11/04 06:33:50;;;;;;;3.67;2.40;;;;;;;15.08;48.89;95183.59;5100422;28;20504;-63
2022/11/04 06:36:16;;;;;;;0.80;0.80;;;;;;;14.75;50.17;95187.00;5103206;28;20447;-63
2022/11/04 06:38:44;;;;;;;2.93;1.97;;;;;;;15.01;49.67;95191.06;5100381;28;20437;-62
2022/11/04 06:41:13;;;;;;;1.53;1.43;;;;;;;15.24;49.41;95189.53;5109617;28;20484;-63
2022/11/04 06:43:40;;;;;;;2.63;1.60;;;;;;;15.17;50.01;95195.16;5109840;28;20484;-63
2022/11/04 06:46:22;;;;;;;1.37;1.27;;;;;;;15.41;49.52;95192.59;5095256;28;20442;-63
2022/11/04 06:48:49;;;;;;;1.03;1.03;;;;;;;15.46;49.45;95191.75;5109533;28;20448;-63
2022/11/04 06:51:16;;;;;;;3.67;1.80;;;;;;;15.54;49.61;95188.53;5092232;28;20461;-62
2022/11/04 06:53:43;;;;;;;5.60;1.57;;;;;;;15.56;49.56;95194.31;5103313;28;20440;-63
2022/11/04 06:56:10;;;;;;;1.70;1.60;;;;;;;15.69;49.84;95185.75;5096290;28;20431;-62
2022/11/04 06:58:36;;;;;;;0.83;0.83;;;;;;;15.52;49.59;95175.59;5109394;28;20962;-62
2022/11/04 07:01:03;;;;;;;6.53;2.13;;;;;;;15.69;49.59;95177.81;5109414;28;20514;-63
2022/11/04 07:03:39;;;;;;;1.97;1.67;;;;;;;16.06;48.59;95180.56;5109695;28;20487;-63
2022/11/04 07:06:07;;;;;;;5.37;2.00;;;;;;;16.37;47.65;95171.19;5109465;28;20519;-63
2022/11/04 07:08:34;;;;;;;0.80;0.80;;;;;;;16.36;47.71;95185.50;5109257;28;20436;-62
2022/11/04 07:11:02;;;;;;;0.87;0.87;;;;;;;15.74;49.74;95185.69;5109103;28;20846;-64
2022/11/04 07:13:29;;;;;;;1.33;1.23;;;;;;;16.38;46.94;95179.91;5099352;28;20443;-63
2022/11/04 07:15:56;;;;;;;2.60;2.40;;;;;;;16.29;47.54;95173.69;5088591;28;20544;-63
2022/11/04 07:18:23;;;;;;;0.40;0.40;;;;;;;16.53;47.20;95172.59;5097135;28;20496;-62
2022/11/04 07:20:51;;;;;;;1.20;1.17;;;;;;;16.72;46.64;95170.75;5109794;28;20436;-61
2022/11/04 07:23:18;;;;;;;1.97;1.87;;;;;;;16.76;46.44;95169.09;5088768;28;20537;-62
2022/11/04 07:25:44;;;;;;;2.80;2.60;;;;;;;16.79;46.95;95162.44;5101257;28;20428;-64
2022/11/04 07:28:11;;;;;;;9.87;1.83;;;;;;;17.04;45.54;95154.91;5109539;28;20433;-62
2022/11/04 07:30:39;;;;;;;1.27;1.13;;;;;;;17.26;44.97;95156.94;5098264;28;20437;-62
2022/11/04 07:33:05;;;;;;;2.10;1.90;;;;;;;16.31;47.63;95147.75;5108130;28;20938;-63
2022/11/04 07:35:32;;;;;;;0.87;0.87;;;;;;;17.11;45.58;95147.38;5113525;28;20500;-63
2022/11/04 07:37:59;;;;;;;1.40;1.33;;;;;;;16.94;45.82;95143.69;5098987;28;20450;-62
2022/11/04 07:40:26;;;;;;;0.43;0.43;;;;;;;16.83;47.02;95140.41;5105915;28;20524;-62
2022/11/04 07:42:53;;;;;;;1.47;1.37;;;;;;;17.33;45.32;95136.16;5092719;28;20910;-63
2022/11/04 07:45:33;;;;;;;2.13;1.33;;;;;;;17.35;45.94;95122.63;5098688;28;20432;-62
2022/11/04 07:48:00;;;;;;;1.33;1.23;;;;;;;17.01;46.40;95113.13;5113047;28;20471;-63
2022/11/04 07:50:26;;;;;;;3.23;1.83;;;;;;;18.10;44.34;95123.88;5092711;27;20473;-63
2022/11/04 07:52:53;;;;;;;20.13;1.90;;;;;;;17.61;44.54;95126.44;5092927;28;20800;-62
2022/11/04 07:55:20;;;;;;;2.90;1.60;;;;;;;18.27;43.51;95129.34;5107528;28;20464;-63
2022/11/04 07:57:47;;;;;;;1.97;1.77;;;;;;;17.54;44.25;95131.31;5113358;28;20435;-63
2022/11/04 08:00:15;;;;;;;3.13;1.97;;;;;;;17.79;44.55;95117.59;5101115;28;20455;-63
2022/11/04 08:02:45;;;;;;;1.00;1.00;;;;;;;18.50;43.68;95123.06;5093037;28;20441;-62
2022/11/04 08:05:13;;;;;;;2.67;1.30;;;;;;;18.78;43.01;95118.41;5091646;28;20849;-63
2022/11/04 08:07:41;;;;;;;2.27;1.83;;;;;;;18.63;43.26;95122.22;5110259;28;20493;-63
2022/11/04 08:10:08;;;;;;;0.90;0.90;;;;;;;18.61;42.96;95100.50;5103449;28;20516;-63
2022/11/04 08:12:37;;;;;;;1.30;1.20;;;;;;;19.18;41.96;95102.31;5108924;28;20796;-62
2022/11/04 08:15:04;;;;;;;1.67;1.57;;;;;;;19.10;42.41;95111.00;5104980;28;20559;-63
2022/11/04 08:17:31;;;;;;;1.37;1.27;;;;;;;19.43;40.96;95108.09;5106948;28;20527;-63
2022/11/04 08:19:59;;;;;;;1.33;1.23;;;;;;;19.53;41.15;95102.50;5099750;28;20560;-63
2022/11/04 08:22:26;;;;;;;0.53;0.53;;;;;;;19.40;41.65;95100.72;5113063;28;20533;-62
2022/11/04 08:24:58;;;;;;;1.87;1.77;;;;;;;19.56;41.13;95099.25;5113068;28;20577;-63
2022/11/04 08:27:25;;;;;;;3.90;2.80;;;;;;;19.63;40.56;95091.63;5112759;28;20848;-63
2022/11/04 08:29:52;;;;;;;2.10;1.90;;;;;;;19.95;40.02;95094.72;5098496;28;20775;-63
2022/11/04 08:32:19;;;;;;;1.40;1.30;;;;;;;19.87;39.74;95076.06;5102553;27;20536;-63
2022/11/04 08:34:45;;;;;;;4.67;2.60;;;;;;;19.76;39.85;95080.09;5108982;28;20466;-63
2022/11/04 08:37:14;;;;;;;1.17;1.10;;;;;;;18.42;42.62;95083.16;5112529;28;20522;-62
2022/11/04 08:39:42;;;;;;;0.70;0.70;;;;;;;19.37;40.76;95064.13;5111849;28;20501;-62
2022/11/04 08:42:09;;;;;;;1.50;1.40;;;;;;;19.55;40.26;95079.88;5112476;28;20444;-63
2022/11/04 08:44:38;;;;;;;0.93;0.93;;;;;;;19.79;40.08;95063.53;5098473;28;21048;-63
2022/11/04 08:47:05;;;;;;;1.90;1.60;;;;;;;20.11;39.10;95076.44;5091693;28;20465;-63
2022/11/04 08:49:36;;;;;;;1.47;1.37;;;;;;;19.79;40.05;95063.53;5091637;28;20445;-63
2022/11/04 08:52:04;;;;;;;4.80;2.53;;;;;;;20.23;39.09;95052.69;5092491;28;20455;-63
2022/11/04 08:54:31;;;;;;;2.67;2.43;;;;;;;20.03;39.53;95070.03;5099006;28;20542;-63
2022/11/04 08:56:58;;;;;;;2.67;2.33;;;;;;;20.40;38.96;95039.38;5112144;28;20440;-63
2022/11/04 08:59:24;;;;;;;0.73;0.73;;;;;;;21.03;38.28;95039.53;5106590;28;20528;-63
2022/11/04 09:01:51;;;;;;;2.63;2.43;;;;;;;20.96;38.38;95055.19;5091957;28;20825;-63
2022/11/04 09:04:18;;;;;;;10.53;2.40;;;;;;;20.31;39.77;95053.81;5109804;28;20478;-63
2022/11/04 09:06:46;;;;;;;1.13;1.13;;;;;;;20.65;38.73;95054.59;5111821;28;20472;-63
2022/11/04 09:09:16;;;;;;;0.87;0.87;;;;;;;21.46;37.49;95043.97;5110255;28;20838;-62
2022/11/04 09:11:43;;;;;;;3.00;2.67;;;;;;;21.32;38.05;95040.69;5111798;28;20951;-64
2022/11/04 09:14:11;;;;;;;1.40;1.40;;;;;;;21.38;37.60;95028.78;5097099;28;20448;-61
2022/11/04 09:16:39;;;;;;;1.73;1.63;;;;;;;21.29;36.26;95031.47;5104884;27;20460;-63
2022/11/04 09:19:07;;;;;;;1.63;1.37;;;;;;;21.84;35.60;95018.84;5105175;28;20441;-63
2022/11/04 09:21:35;;;;;;;3.23;2.97;;;;;;;21.52;35.99;95019.47;5111793;28;20450;-64
2022/11/04 09:24:02;;;;;;;2.17;1.37;;;;;;;22.31;35.37;95019.50;5111710;28;20245;-63
2022/11/04 09:26:29;;;;;;;2.30;2.10;;;;;;;22.36;34.55;95016.63;5111672;28;20255;-64
2022/11/04 09:28:57;;;;;;;1.23;1.17;;;;;;;21.41;35.87;95006.78;5111089;27;20966;-63
2022/11/04 09:31:26;;;;;;;1.53;1.43;;;;;;;22.06;35.89;95012.47;5097429;28;20447;-63
2022/11/04 09:33:54;;;;;;;2.43;2.03;;;;;;;22.01;35.70;95004.63;5111799;28;20198;-63
2022/11/04 09:36:21;;;;;;;1.17;1.17;;;;;;;22.11;35.10;95004.25;5109990;28;20202;-64
2022/11/04 09:38:48;;;;;;;3.20;1.80;;;;;;;22.39;34.71;94999.19;5098753;28;20198;-62
2022/11/04 09:41:41;;;;;;;3.67;3.33;;;;;;;22.63;34.07;94988.59;5111335;28;20209;-63
2022/11/04 09:44:42;;;;;;;1.53;1.37;;;;;;;22.34;35.12;94992.13;5100973;28;20215;-63
2022/11/04 09:47:31;;;;;;;4.03;2.83;;;;;;;22.39;34.67;94981.25;5090686;28;20222;-62
2022/11/04 09:50:00;;;;;;;6.37;3.53;;;;;;;22.14;35.03;94974.22;5104600;28;20259;-64
2022/11/04 09:52:31;;;;;;;1.73;1.60;;;;;;;22.04;35.60;94975.41;5090514;28;20205;-62
2022/11/04 09:55:23;;;;;;;3.40;2.27;;;;;;;22.70;34.74;94968.28;5090378;28;20203;-62
2022/11/04 09:57:54;;;;;;;5.47;3.77;;;;;;;22.05;36.02;94962.84;5090955;28;20199;-63
2022/11/04 10:00:22;;;;;;;1.30;1.20;;;;;;;21.60;36.33;94951.19;5103791;28;20198;-63
2022/11/04 10:03:14;;;;;;;5.43;3.83;;;;;;;22.13;35.15;94948.66;5105782;28;20252;-62
2022/11/04 10:06:03;;;;;;;4.57;3.80;;;;;;;22.49;35.50;94946.16;5104552;28;20206;-63
2022/11/04 10:08:45;;;;;;;1.30;1.20;;;;;;;22.91;34.18;94936.16;5101165;28;20342;-63
2022/11/04 10:11:20;;;;;;;4.27;2.73;;;;;;;23.58;33.84;94927.63;5110276;28;20198;-63
2022/11/04 10:13:56;;;;;;;2.50;2.30;;;;;;;22.18;34.58;94932.44;5110364;28;20251;-63
2022/11/04 10:16:25;;;;;;;4.93;3.67;;;;;;;22.49;34.45;94935.47;5091469;28;20195;-63
2022/11/04 10:19:07;;;;;;;2.80;2.23;;;;;;;22.66;34.23;94932.63;5089745;28;20749;-63
2022/11/04 10:21:43;;;;;;;2.53;2.00;;;;;;;22.93;33.57;94915.22;5104318;28;20264;-63
2022/11/04 10:24:29;;;;;;;2.57;2.37;;;;;;;22.30;34.22;94916.47;5089717;28;20623;-63
2022/11/04 10:27:08;;;;;;;1.70;1.60;;;;;;;22.43;33.77;94904.72;5098100;28;20208;-63
2022/11/04 10:29:49;;;;;;;3.33;2.00;;;;;;;22.45;34.30;94897.16;5108508;28;20218;-64
2022/11/04 10:32:30;;;;;;;1.53;1.43;;;;;;;22.09;34.41;94889.03;5089973;28;20221;-62
2022/11/04 10:35:12;;;;;;;1.13;1.10;;;;;;;22.50;33.77;94896.19;5108010;28;20205;-63
2022/11/04 10:37:39;;;;;;;20.33;3.00;;;;;;;22.34;34.25;94874.66;5097566;28;20244;-64
2022/11/04 10:40:21;;;;;;;3.50;1.60;;;;;;;23.11;33.64;94879.94;5108676;28;20194;-62
2022/11/04 10:42:50;;;;;;;1.50;1.03;;;;;;;23.01;33.24;94867.00;5110153;28;20218;-64
2022/11/04 10:45:23;;;;;;;1.33;1.23;;;;;;;23.54;32.16;94851.88;5110209;28;20210;-63
2022/11/04 10:48:04;;;;;;;1.37;1.23;;;;;;;22.80;33.87;94861.00;5097102;28;20262;-63
2022/11/04 10:50:40;;;;;;;0.50;0.50;;;;;;;22.70;34.21;94861.41;5090401;28;20642;-63
2022/11/04 10:53:09;;;;;;;2.13;1.60;;;;;;;23.39;32.83;94844.53;5089829;28;20248;-63
2022/11/04 10:55:45;;;;;;;4.23;2.37;;;;;;;23.37;32.66;94841.41;5089572;28;20260;-64
2022/11/04 10:58:29;;;;;;;1.93;1.83;;;;;;;23.49;32.65;94836.03;5099143;28;20197;-64
2022/11/04 11:00:57;;;;;;;1.17;1.17;;;;;;;23.16;32.81;94825.47;5109971;28;20197;-63
2022/11/04 11:03:33;;;;;;;2.30;1.47;;;;;;;23.29;33.12;94829.72;5109847;28;20202;-64
2022/11/04 11:06:11;;;;;;;1.73;1.63;;;;;;;23.51;31.97;94815.09;5105788;28;20770;-64
2022/11/04 11:08:41;;;;;;;2.50;1.40;;;;;;;23.40;32.21;94811.31;5099026;28;20638;-64
2022/11/04 11:11:08;;;;;;;2.53;2.30;;;;;;;23.67;32.00;94805.22;5095348;28;20229;-62
2022/11/04 11:13:41;;;;;;;7.73;1.70;;;;;;;23.87;32.06;94796.22;5109428;28;20721;-63
2022/11/04 11:16:16;;;;;;;1.80;1.53;;;;;;;23.52;33.01;94798.69;5095120;28;20251;-63
2022/11/04 11:18:43;;;;;;;1.20;1.10;;;;;;;23.76;31.71;94787.13;5099071;28;20672;-63
2022/11/04 11:21:20;;;;;;;1.03;0.90;;;;;;;23.81;31.14;94781.56;5106010;28;20618;-63
2022/11/04 11:23:49;;;;;;;3.00;1.90;;;;;;;23.45;31.83;94789.72;5109275;28;20691;-63
2022/11/04 11:26:31;;;;;;;0.83;0.83;;;;;;;23.25;32.44;94790.63;5106806;28;20190;-63
2022/11/04 11:29:02;;;;;;;2.33;1.27;;;;;;;24.10;31.56;94773.97;5088864;28;20617;-64
2022/11/04 11:31:38;;;;;;;6.57;1.83;;;;;;;24.08;31.12;94764.72;5088700;28;20238;-63
2022/11/04 11:34:25;;;;;;;1.80;1.20;;;;;;;24.57;30.51;94752.59;5089178;28;20199;-63
2022/11/04 11:36:55;;;;;;;5.33;2.80;;;;;;;24.45;30.62;94752.66;5103484;28;20282;-63
2022/11/04 11:39:31;;;;;;;6.73;2.63;;;;;;;24.91;29.96;94746.50;5101998;28;20624;-63
2022/11/04 11:42:01;;;;;;;1.77;1.43;;;;;;;25.13;29.88;94733.59;5089040;28;20199;-63
2022/11/04 11:44:37;;;;;;;4.53;1.93;;;;;;;25.65;29.26;94733.94;5088770;28;20305;-65
2022/11/04 11:47:15;;;;;;;1.40;1.00;;;;;;;25.77;28.26;94725.72;5108943;28;20336;-63
2022/11/04 11:49:42;;;;;;;2.70;1.97;;;;;;;25.73;28.47;94722.22;5109235;28;20256;-63
2022/11/04 11:52:16;;;;;;;1.60;1.33;;;;;;;25.47;28.72;94716.72;5091444;28;20286;-62
2022/11/04 11:54:48;;;;;;;1.30;1.20;;;;;;;25.23;29.16;94714.25;5109315;28;20587;-64
2022/11/04 11:57:33;;;;;;;2.27;0.90;;;;;;;25.28;29.34;94712.06;5095116;28;20206;-63
2022/11/04 12:00:09;;;;;;;3.40;1.70;;;;;;;25.32;29.00;94712.94;5098544;28;20615;-64
2022/11/04 12:02:59;;;;;;;2.10;1.90;;;;;;;25.35;29.02;94700.72;5087916;28;20194;-64
2022/11/04 12:05:34;;;;;;;1.30;0.80;;;;;;;25.29;29.01;94699.47;5101966;28;20289;-64
2022/11/04 12:08:48;;;;;;;1.43;1.00;;;;;;;24.83;29.55;94693.91;5097882;28;20267;-64
2022/11/04 12:11:47;;;;;;;0.83;0.63;;;;;;;25.19;29.23;94694.63;5088653;28;20239;-64
2022/11/04 12:14:31;;;;;;;4.20;1.60;;;;;;;25.13;29.41;94685.34;5102679;28;20207;-64
2022/11/04 12:17:19;;;;;;;1.13;1.13;;;;;;;24.82;29.88;94697.69;5098593;28;20204;-64
2022/11/04 12:20:29;;;;;;;1.80;1.60;;;;;;;25.38;29.08;94686.63;5106799;28;20206;-63
2022/11/04 12:23:20;;;;;;;1.57;1.47;;;;;;;25.63;28.68;94687.88;5091632;28;20194;-64
2022/11/04 12:26:11;;;;;;;2.47;2.10;;;;;;;25.66;28.40;94682.59;5113042;28;20233;-63